Time;durP1;ratioP1;P1;durP2;ratioP2;P2;SDS_P1;SDS_P2;PMS_P1;PMS_P2;Temp;Humidity;BMP_temperature;BMP_pressure;BME280_temperature;BME280_humidity;BME280_pressure;Samples;Min_cycle;Max_cycle;Signal;HPM_P1;HPM_P2
2021/12/01 00:01:22;;;;;;;0.10;0.10;;;17.90;67.60;;;;;;5046801;28;45097;-77
2021/12/01 00:03:49;;;;;;;0.25;0.20;;;17.90;67.70;;;;;;5047562;28;45239;-77
2021/12/01 00:09:08;;;;;;;0.28;0.28;;;17.90;67.40;;;;;;5046651;28;45372;-78
2021/12/01 00:11:35;;;;;;;0.50;0.20;;;17.90;67.40;;;;;;5040430;28;45312;-78
2021/12/01 00:14:02;;;;;;;0.20;0.20;;;17.90;67.40;;;;;;5047980;28;45245;-78
2021/12/01 00:16:29;;;;;;;0.13;0.10;;;17.90;67.20;;;;;;5046574;28;45352;-78
2021/12/01 00:18:59;;;;;;;0.15;0.15;;;17.90;67.30;;;;;;5045934;28;47773;-78
2021/12/01 00:21:31;;;;;;;0.20;0.20;;;17.90;67.10;;;;;;5048966;28;45729;-78
2021/12/01 00:23:58;;;;;;;0.20;0.10;;;17.90;67.10;;;;;;5031620;28;45268;-78
2021/12/01 00:26:28;;;;;;;0.55;0.13;;;17.90;67.00;;;;;;5048455;28;45498;-78
2021/12/01 00:28:55;;;;;;;0.10;0.10;;;17.90;67.10;;;;;;5050950;28;47285;-78
2021/12/01 00:31:29;;;;;;;0.32;0.20;;;17.90;67.00;;;;;;5049771;28;45172;-78
2021/12/01 00:33:57;;;;;;;0.20;0.20;;;17.90;67.10;;;;;;5049872;28;45299;-78
2021/12/01 00:36:27;;;;;;;0.10;0.10;;;17.90;67.00;;;;;;5046843;28;45367;-78
2021/12/01 00:38:55;;;;;;;0.00;0.00;;;17.90;66.90;;;;;;5048314;28;47434;-78
2021/12/01 00:41:23;;;;;;;0.38;0.10;;;17.80;66.80;;;;;;5048557;28;45326;-78
2021/12/01 00:43:52;;;;;;;0.45;0.20;;;17.80;66.80;;;;;;5050309;28;45380;-78
2021/12/01 00:46:24;;;;;;;0.10;0.10;;;17.80;66.90;;;;;;5049646;28;45284;-78
2021/12/01 00:48:51;;;;;;;0.25;0.20;;;17.80;66.90;;;;;;5050039;28;46486;-77
2021/12/01 00:51:18;;;;;;;0.10;0.10;;;17.80;66.80;;;;;;5047967;28;45423;-78
2021/12/01 00:53:47;;;;;;;0.25;0.17;;;17.80;66.70;;;;;;5051174;28;45177;-78
2021/12/01 00:56:15;;;;;;;0.10;0.10;;;17.90;66.70;;;;;;5050080;28;45496;-78
2021/12/01 00:58:43;;;;;;;0.08;0.08;;;17.80;66.60;;;;;;5049308;28;48700;-78
2021/12/01 01:01:15;;;;;;;0.25;0.22;;;17.80;66.60;;;;;;5048444;28;45367;-78
2021/12/01 01:03:43;;;;;;;0.38;0.10;;;17.90;66.60;;;;;;5050366;28;45259;-78
2021/12/01 01:06:10;;;;;;;0.10;0.10;;;17.90;66.50;;;;;;5049790;28;45356;-78
2021/12/01 01:08:38;;;;;;;0.43;0.20;;;17.90;66.50;;;;;;5049702;28;46602;-78
2021/12/01 01:16:22;;;;;;;0.05;0.05;;;17.90;66.40;;;;;;5048292;28;45955;-78
2021/12/01 01:16:50;;;;;;;0.10;0.10;;;17.90;67.30;;;;;;5022871;28;45381;-78
2021/12/01 01:19:19;;;;;;;0.20;0.20;;;17.90;66.30;;;;;;5032452;28;46027;-78
2021/12/01 01:21:52;;;;;;;0.10;0.10;;;17.90;66.30;;;;;;5046928;28;46414;-78
2021/12/01 01:24:22;;;;;;;0.20;0.20;;;17.90;66.30;;;;;;5030685;28;45291;-78
2021/12/01 01:26:50;;;;;;;0.10;0.10;;;17.90;66.30;;;;;;5030008;28;45489;-78
2021/12/01 01:29:21;;;;;;;1.10;0.13;;;17.90;66.10;;;;;;5033432;28;48229;-78
2021/12/01 01:31:51;;;;;;;0.20;0.13;;;17.90;66.10;;;;;;5048730;28;45844;-78
2021/12/01 01:34:19;;;;;;;0.17;0.10;;;17.90;66.10;;;;;;5050512;28;45280;-78
2021/12/01 01:36:46;;;;;;;0.22;0.20;;;17.90;66.00;;;;;;5031828;28;45316;-78
2021/12/01 01:39:13;;;;;;;0.20;0.20;;;17.90;66.00;;;;;;5040773;28;48392;-78
2021/12/01 01:41:41;;;;;;;0.20;0.10;;;17.90;65.90;;;;;;5049438;28;45277;-78
2021/12/01 01:44:09;;;;;;;0.00;0.00;;;17.90;65.90;;;;;;5048500;28;45510;-78
2021/12/01 01:46:39;;;;;;;0.47;0.10;;;17.90;66.00;;;;;;5049868;28;45528;-78
2021/12/01 01:49:16;;;;;;;0.28;0.15;;;17.90;65.70;;;;;;5031342;28;47472;-78
2021/12/01 01:51:43;;;;;;;0.17;0.10;;;17.90;65.70;;;;;;5049081;28;45611;-78
2021/12/01 01:54:12;;;;;;;0.15;0.10;;;17.90;65.60;;;;;;5048659;28;45484;-78
2021/12/01 01:56:40;;;;;;;0.20;0.20;;;17.90;65.60;;;;;;5036226;28;45542;-78
2021/12/01 01:59:07;;;;;;;0.00;0.00;;;17.90;65.50;;;;;;5048644;28;47020;-78
2021/12/01 02:01:45;;;;;;;0.30;0.20;;;17.90;65.40;;;;;;5046121;28;45257;-78
2021/12/01 02:04:19;;;;;;;0.20;0.15;;;17.90;65.40;;;;;;5049284;28;45193;-78
2021/12/01 02:06:48;;;;;;;0.15;0.10;;;17.90;65.40;;;;;;5048338;28;45387;-78
2021/12/01 02:09:17;;;;;;;0.40;0.20;;;17.90;65.30;;;;;;5048599;28;47556;-78
2021/12/01 02:11:44;;;;;;;1.08;0.10;;;17.90;65.40;;;;;;5048209;28;45347;-78
2021/12/01 02:14:12;;;;;;;0.10;0.10;;;17.90;65.30;;;;;;5048411;28;45266;-78
2021/12/01 02:16:39;;;;;;;0.17;0.10;;;17.90;65.30;;;;;;5031238;28;45209;-78
2021/12/01 02:19:06;;;;;;;0.25;0.20;;;17.90;65.30;;;;;;5041529;28;45356;-78
2021/12/01 02:21:35;;;;;;;2.10;0.30;;;17.90;65.20;;;;;;5048108;28;45545;-78
2021/12/01 02:24:05;;;;;;;0.10;0.10;;;17.90;65.10;;;;;;5038891;28;45317;-78
2021/12/01 02:26:35;;;;;;;0.20;0.20;;;17.90;65.10;;;;;;5049496;28;45317;-78
2021/12/01 02:29:06;;;;;;;0.22;0.22;;;17.90;65.00;;;;;;5047980;28;45378;-78
2021/12/01 02:31:36;;;;;;;0.35;0.25;;;17.90;65.00;;;;;;5046558;28;45202;-78
2021/12/01 02:34:05;;;;;;;0.38;0.30;;;17.90;64.90;;;;;;5049224;28;45258;-78
2021/12/01 02:36:35;;;;;;;0.30;0.30;;;17.90;64.90;;;;;;5048905;28;45347;-77
2021/12/01 02:39:05;;;;;;;0.45;0.45;;;17.90;64.90;;;;;;5021630;28;46203;-78
2021/12/01 02:41:33;;;;;;;0.63;0.43;;;17.90;64.80;;;;;;5046788;28;45262;-78
2021/12/01 02:44:02;;;;;;;0.73;0.30;;;17.90;64.70;;;;;;5039522;28;45374;-78
2021/12/01 02:46:30;;;;;;;0.38;0.38;;;17.90;64.60;;;;;;5048878;28;45228;-78
2021/12/01 02:48:57;;;;;;;0.50;0.30;;;17.90;64.50;;;;;;5048895;28;47099;-78
2021/12/01 02:51:27;;;;;;;0.73;0.50;;;17.90;64.50;;;;;;5048266;28;45305;-78
2021/12/01 02:53:57;;;;;;;0.50;0.50;;;17.90;64.50;;;;;;5048646;28;45289;-78
2021/12/01 02:56:24;;;;;;;0.30;0.30;;;17.90;64.40;;;;;;5048846;28;45162;-78
2021/12/01 02:58:52;;;;;;;0.50;0.30;;;17.90;64.40;;;;;;5047070;28;47378;-78
2021/12/01 03:01:22;;;;;;;1.05;0.68;;;17.90;64.40;;;;;;5046722;28;45491;-78
2021/12/01 03:03:51;;;;;;;1.55;0.60;;;17.90;64.30;;;;;;5047724;28;45183;-78
2021/12/01 03:06:20;;;;;;;0.50;0.40;;;17.90;64.20;;;;;;5047429;28;45554;-78
2021/12/01 03:08:50;;;;;;;0.98;0.60;;;17.90;64.20;;;;;;5046477;28;47531;-78
2021/12/01 03:11:19;;;;;;;0.52;0.40;;;17.90;64.10;;;;;;5048316;28;45224;-78
2021/12/01 03:13:48;;;;;;;0.70;0.70;;;17.90;64.10;;;;;;5048326;28;45257;-78
2021/12/01 03:16:15;;;;;;;0.40;0.40;;;17.90;64.00;;;;;;5046702;28;45418;-79
2021/12/01 03:18:44;;;;;;;0.50;0.50;;;17.90;65.00;;;;;;5047451;28;46950;-78
2021/12/01 03:21:18;;;;;;;0.50;0.50;;;18.00;63.90;;;;;;5046937;28;45222;-79
2021/12/01 03:23:51;;;;;;;0.63;0.50;;;18.00;63.80;;;;;;5048694;28;45255;-79
2021/12/01 03:26:22;;;;;;;1.00;0.73;;;18.00;63.80;;;;;;5045644;28;45292;-79
2021/12/01 03:28:50;;;;;;;0.80;0.60;;;18.00;63.80;;;;;;5046793;28;45493;-79
2021/12/01 03:31:17;;;;;;;0.73;0.57;;;18.00;63.70;;;;;;5047347;28;45308;-78
2021/12/01 03:33:45;;;;;;;0.98;0.60;;;18.00;63.70;;;;;;5048118;28;45319;-78
2021/12/01 03:36:16;;;;;;;0.50;0.50;;;18.00;63.70;;;;;;5047105;28;45306;-79
2021/12/01 03:38:43;;;;;;;0.82;0.73;;;18.00;63.70;;;;;;5044936;28;46535;-79
2021/12/01 03:41:12;;;;;;;0.73;0.50;;;17.90;63.60;;;;;;5045176;28;46610;-79
2021/12/01 03:43:42;;;;;;;0.82;0.60;;;17.90;63.60;;;;;;5047652;28;46241;-79
2021/12/01 03:46:10;;;;;;;1.25;0.80;;;17.90;63.70;;;;;;5047397;28;45523;-79
2021/12/01 03:48:38;;;;;;;1.30;0.88;;;17.90;63.60;;;;;;5047191;28;46359;-79
2021/12/01 03:51:07;;;;;;;0.65;0.65;;;17.90;63.60;;;;;;5046474;28;45790;-79
2021/12/01 03:53:34;;;;;;;0.80;0.80;;;17.90;63.60;;;;;;5050126;28;45323;-79
2021/12/01 03:56:01;;;;;;;0.70;0.60;;;17.90;63.60;;;;;;5050532;28;45450;-79
2021/12/01 03:58:29;;;;;;;0.90;0.75;;;17.90;63.60;;;;;;5032321;28;46020;-79
2021/12/01 04:00:57;;;;;;;0.65;0.60;;;17.90;63.60;;;;;;5050284;28;45348;-78
2021/12/01 04:03:26;;;;;;;1.13;0.65;;;17.90;63.60;;;;;;5050802;28;45376;-78
2021/12/01 04:05:53;;;;;;;0.88;0.68;;;17.90;63.50;;;;;;5053887;28;45341;-79
2021/12/01 04:08:21;;;;;;;1.02;0.60;;;17.90;63.50;;;;;;5057866;28;46203;-79
2021/12/01 04:10:49;;;;;;;0.80;0.70;;;18.00;63.30;;;;;;5055823;28;45335;-79
2021/12/01 04:13:16;;;;;;;1.05;0.70;;;17.90;63.40;;;;;;5050323;28;45204;-79
2021/12/01 04:15:43;;;;;;;1.05;0.82;;;17.90;63.30;;;;;;5050797;28;45245;-79
2021/12/01 04:18:12;;;;;;;0.55;0.50;;;17.90;63.30;;;;;;5043593;28;46249;-79
2021/12/01 04:20:39;;;;;;;0.73;0.70;;;17.90;63.30;;;;;;5048039;28;45223;-79
2021/12/01 04:23:07;;;;;;;1.15;0.88;;;17.90;63.30;;;;;;5048573;28;45554;-79
2021/12/01 04:25:36;;;;;;;0.82;0.60;;;17.90;63.20;;;;;;5033380;28;45621;-79
2021/12/01 04:28:04;;;;;;;1.15;0.85;;;17.90;63.10;;;;;;5050566;28;47586;-78
2021/12/01 04:30:31;;;;;;;0.75;0.60;;;17.90;63.10;;;;;;5043443;28;45282;-78
2021/12/01 04:32:59;;;;;;;0.70;0.60;;;17.90;63.10;;;;;;5049845;28;45244;-78
2021/12/01 04:35:29;;;;;;;1.17;0.60;;;17.90;62.90;;;;;;5051612;28;45170;-79
2021/12/01 04:37:56;;;;;;;1.08;0.70;;;17.90;63.00;;;;;;5049828;28;48142;-79
2021/12/01 04:40:26;;;;;;;0.68;0.65;;;17.90;63.00;;;;;;5049531;28;45418;-79
2021/12/01 04:42:54;;;;;;;0.90;0.70;;;17.90;62.90;;;;;;5049432;28;45180;-79
2021/12/01 04:45:25;;;;;;;1.00;0.63;;;17.90;62.80;;;;;;5033605;28;45224;-79
2021/12/01 04:47:56;;;;;;;1.75;0.60;;;17.90;62.80;;;;;;5046403;28;47487;-79
2021/12/01 04:50:33;;;;;;;0.73;0.60;;;17.90;62.70;;;;;;5050690;28;45506;-79
2021/12/01 04:53:03;;;;;;;0.38;0.38;;;17.90;62.80;;;;;;5050110;28;45268;-79
2021/12/01 04:55:30;;;;;;;0.70;0.50;;;17.90;62.60;;;;;;5050767;28;45284;-79
2021/12/01 04:57:59;;;;;;;1.30;0.43;;;17.90;62.70;;;;;;5049123;28;48257;-79
2021/12/01 05:00:29;;;;;;;0.70;0.57;;;17.90;62.60;;;;;;5049413;28;45349;-79
2021/12/01 05:02:56;;;;;;;1.75;0.40;;;18.00;62.50;;;;;;5049853;28;45226;-78
2021/12/01 05:05:24;;;;;;;1.30;0.63;;;17.90;62.20;;;;;;5050099;28;45165;-79
2021/12/01 05:07:54;;;;;;;0.47;0.43;;;17.90;62.20;;;;;;5043041;28;46105;-81
2021/12/01 05:10:22;;;;;;;0.60;0.60;;;17.90;62.40;;;;;;5047067;28;45699;-78
2021/12/01 05:12:50;;;;;;;0.70;0.50;;;17.90;64.40;;;;;;5049187;28;45875;-79
2021/12/01 05:17:52;;;;;;;0.73;0.60;;;17.90;66.10;;;;;;5139472;22;45567;-79
2021/12/01 05:20:19;;;;;;;0.82;0.40;;;17.90;64.90;;;;;;5043116;28;45101;-78
2021/12/01 05:22:47;;;;;;;1.27;0.52;;;17.90;64.90;;;;;;5044959;28;45336;-79
2021/12/01 05:25:16;;;;;;;0.70;0.70;;;17.90;63.10;;;;;;5049277;28;45208;-79
2021/12/01 05:27:42;;;;;;;0.63;0.55;;;17.90;62.60;;;;;;5049474;28;47642;-79
2021/12/01 05:30:11;;;;;;;0.40;0.30;;;17.90;62.40;;;;;;5049341;28;45232;-80
2021/12/01 05:32:43;;;;;;;0.75;0.60;;;17.90;62.40;;;;;;5044772;28;45405;-79
2021/12/01 05:35:11;;;;;;;0.95;0.60;;;17.90;64.00;;;;;;5050092;28;45441;-79
2021/12/01 05:37:38;;;;;;;0.77;0.43;;;17.90;66.00;;;;;;5049726;28;47416;-78
2021/12/01 05:40:07;;;;;;;0.45;0.40;;;17.90;65.70;;;;;;5048995;28;45392;-80
2021/12/01 05:42:40;;;;;;;0.93;0.60;;;17.90;65.50;;;;;;5050280;28;45264;-79
2021/12/01 05:45:08;;;;;;;0.95;0.60;;;17.90;64.70;;;;;;5049639;28;45498;-79
2021/12/01 05:47:41;;;;;;;0.93;0.45;;;17.90;64.10;;;;;;5049307;28;46359;-80
2021/12/01 05:50:13;;;;;;;0.38;0.38;;;17.90;63.50;;;;;;5017889;28;45215;-79
2021/12/01 05:52:49;;;;;;;1.17;0.65;;;17.90;63.50;;;;;;5049768;28;45407;-79
2021/12/01 05:55:18;;;;;;;0.35;0.35;;;17.90;63.80;;;;;;5048676;28;45522;-79
2021/12/01 05:57:49;;;;;;;0.55;0.40;;;17.90;64.20;;;;;;5048696;28;47403;-79
2021/12/01 06:00:17;;;;;;;0.68;0.40;;;17.90;64.30;;;;;;5048333;28;45417;-79
2021/12/01 06:02:48;;;;;;;0.32;0.32;;;17.90;64.30;;;;;;5048543;28;45156;-79
2021/12/01 06:05:17;;;;;;;0.60;0.40;;;17.90;63.80;;;;;;5050064;28;45500;-80
2021/12/01 06:07:44;;;;;;;0.85;0.35;;;17.90;63.70;;;;;;5047908;28;47990;-80
2021/12/01 06:10:12;;;;;;;0.82;0.40;;;17.90;64.20;;;;;;5048641;28;45344;-80
2021/12/01 06:12:41;;;;;;;0.40;0.40;;;17.90;64.50;;;;;;5029598;28;45268;-80
2021/12/01 06:15:11;;;;;;;0.40;0.30;;;17.90;64.80;;;;;;5049219;28;45273;-80
2021/12/01 06:17:39;;;;;;;0.75;0.30;;;17.90;64.90;;;;;;5046972;28;47666;-80
2021/12/01 06:20:11;;;;;;;0.47;0.32;;;17.90;64.90;;;;;;5046931;28;45186;-80
2021/12/01 06:22:39;;;;;;;0.30;0.20;;;17.90;65.00;;;;;;5046226;28;45363;-80
2021/12/01 06:25:10;;;;;;;0.55;0.40;;;17.90;65.30;;;;;;5048504;28;45526;-80
2021/12/01 06:27:38;;;;;;;0.50;0.30;;;17.90;65.00;;;;;;5046838;28;48156;-79
2021/12/01 06:30:08;;;;;;;0.35;0.30;;;17.90;65.10;;;;;;5040173;28;45245;-80
2021/12/01 06:32:36;;;;;;;0.50;0.50;;;17.90;65.00;;;;;;5033571;28;45198;-80
2021/12/01 06:35:14;;;;;;;0.85;0.30;;;17.90;65.00;;;;;;5047958;28;45215;-79
2021/12/01 06:37:41;;;;;;;0.30;0.30;;;17.90;65.00;;;;;;5043802;28;47885;-79
2021/12/01 06:40:10;;;;;;;0.57;0.20;;;17.90;65.00;;;;;;5049044;28;45441;-80
2021/12/01 06:42:38;;;;;;;0.50;0.30;;;17.90;65.00;;;;;;5045146;28;45205;-82
2021/12/01 06:45:09;;;;;;;0.70;0.30;;;17.90;65.10;;;;;;5046063;28;45368;-78
2021/12/01 06:47:41;;;;;;;0.40;0.20;;;18.00;65.30;;;;;;5047431;28;46124;-80
2021/12/01 06:50:10;;;;;;;0.30;0.30;;;17.90;65.30;;;;;;5046456;28;45253;-81
2021/12/01 06:52:39;;;;;;;0.20;0.17;;;18.00;65.40;;;;;;5046466;28;45304;-80
2021/12/01 06:55:08;;;;;;;0.30;0.30;;;18.00;65.40;;;;;;5048754;28;45686;-81
2021/12/01 06:57:37;;;;;;;0.40;0.30;;;18.00;65.30;;;;;;5047400;28;48073;-80
2021/12/01 07:00:08;;;;;;;0.52;0.30;;;18.00;65.30;;;;;;5049469;28;45403;-80
2021/12/01 07:02:37;;;;;;;0.20;0.20;;;18.00;65.30;;;;;;5049156;28;45274;-80
2021/12/01 07:05:09;;;;;;;0.30;0.30;;;18.00;65.30;;;;;;5031592;28;45277;-80
2021/12/01 07:07:40;;;;;;;0.20;0.20;;;18.00;65.20;;;;;;5048032;28;48428;-80
2021/12/01 07:10:12;;;;;;;0.55;0.30;;;18.00;65.30;;;;;;5048165;28;45229;-80
2021/12/01 07:12:43;;;;;;;0.25;0.25;;;18.00;65.30;;;;;;5049119;28;45219;-79
2021/12/01 07:15:18;;;;;;;0.28;0.20;;;18.00;65.20;;;;;;5029272;28;45204;-79
2021/12/01 07:17:53;;;;;;;0.20;0.15;;;18.00;65.20;;;;;;5034225;28;47197;-79
2021/12/01 07:20:25;;;;;;;0.20;0.20;;;18.00;65.30;;;;;;5043715;28;45393;-80
2021/12/01 07:22:54;;;;;;;0.10;0.10;;;18.00;65.40;;;;;;5042116;28;45232;-79
2021/12/01 07:25:25;;;;;;;0.20;0.20;;;18.00;65.30;;;;;;5039339;28;45407;-79
2021/12/01 07:27:53;;;;;;;0.22;0.22;;;18.00;65.20;;;;;;5037895;28;47379;-79
2021/12/01 07:30:20;;;;;;;0.13;0.10;;;18.00;65.20;;;;;;5042546;28;45169;-79
2021/12/01 07:32:50;;;;;;;0.60;0.30;;;18.00;65.20;;;;;;5044470;28;45149;-80
2021/12/01 07:35:19;;;;;;;0.10;0.10;;;18.00;65.30;;;;;;5035890;28;45354;-79
2021/12/01 07:37:50;;;;;;;0.22;0.10;;;18.00;65.30;;;;;;5034600;28;47034;-79
2021/12/01 07:40:17;;;;;;;0.10;0.10;;;18.00;65.40;;;;;;5038155;28;45332;-80
2021/12/01 07:42:45;;;;;;;0.20;0.20;;;18.00;65.50;;;;;;5040746;28;45450;-79
2021/12/01 07:45:13;;;;;;;0.10;0.10;;;18.00;65.50;;;;;;5038458;28;45418;-79
2021/12/01 07:47:41;;;;;;;0.28;0.20;;;18.00;65.70;;;;;;5048318;28;45334;-79
2021/12/01 07:50:12;;;;;;;0.25;0.10;;;18.00;65.50;;;;;;5044988;28;45714;-80
2021/12/01 07:52:40;;;;;;;0.15;0.15;;;18.00;65.50;;;;;;5039149;28;45316;-80
2021/12/01 07:55:10;;;;;;;0.20;0.13;;;18.00;65.60;;;;;;5037115;28;45216;-80
2021/12/01 07:57:42;;;;;;;0.20;0.20;;;18.00;65.60;;;;;;5036843;28;48114;-80
2021/12/01 08:00:22;;;;;;;0.20;0.20;;;18.00;65.60;;;;;;5042629;28;45312;-80
2021/12/01 08:02:50;;;;;;;0.85;0.30;;;18.00;65.60;;;;;;5045627;28;45293;-80
2021/12/01 08:05:46;;;;;;;0.25;0.20;;;18.00;65.60;;;;;;5048658;28;45176;-79
2021/12/01 08:08:17;;;;;;;0.10;0.10;;;18.00;65.50;;;;;;5037971;28;48534;-80
2021/12/01 08:10:46;;;;;;;0.22;0.10;;;18.00;65.60;;;;;;5030805;28;45199;-80
2021/12/01 08:13:15;;;;;;;2.22;0.10;;;18.00;65.60;;;;;;5049852;28;45383;-80
2021/12/01 08:15:45;;;;;;;0.20;0.10;;;18.00;65.60;;;;;;5042867;28;45224;-80
2021/12/01 08:18:12;;;;;;;0.20;0.15;;;18.00;65.40;;;;;;5030765;28;47198;-80
2021/12/01 08:20:42;;;;;;;0.20;0.20;;;18.00;65.30;;;;;;5046886;28;45349;-80
2021/12/01 08:23:09;;;;;;;0.00;0.00;;;18.00;65.30;;;;;;5047672;28;45411;-80
2021/12/01 08:25:37;;;;;;;0.40;0.10;;;18.00;65.30;;;;;;5025701;28;45462;-80
2021/12/01 08:28:07;;;;;;;0.00;0.00;;;18.00;65.20;;;;;;5046933;28;45217;-80
2021/12/01 08:30:35;;;;;;;0.20;0.20;;;18.00;65.10;;;;;;5039978;28;46941;-80
2021/12/01 08:33:02;;;;;;;0.30;0.15;;;18.00;65.40;;;;;;5040190;28;45215;-80
2021/12/01 08:35:40;;;;;;;0.22;0.10;;;18.00;65.30;;;;;;5043225;28;45511;-80
2021/12/01 08:38:16;;;;;;;0.35;0.10;;;18.00;65.20;;;;;;5039726;28;48060;-80
2021/12/01 08:40:46;;;;;;;0.30;0.20;;;18.00;65.50;;;;;;5050227;28;46283;-80
2021/12/01 08:43:13;;;;;;;0.10;0.10;;;18.00;65.50;;;;;;5047770;28;45291;-80
2021/12/01 08:45:42;;;;;;;0.00;0.00;;;18.00;65.50;;;;;;5042569;28;45307;-80
2021/12/01 08:48:11;;;;;;;0.45;0.13;;;18.00;65.40;;;;;;5049882;28;48398;-80
2021/12/01 08:50:41;;;;;;;0.13;0.03;;;17.90;65.30;;;;;;5050382;28;45722;-80
2021/12/01 08:53:10;;;;;;;0.10;0.10;;;18.00;65.40;;;;;;5046194;28;45330;-80
2021/12/01 08:55:41;;;;;;;0.10;0.10;;;18.00;65.40;;;;;;5040619;28;45341;-80
2021/12/01 08:58:09;;;;;;;0.13;0.10;;;18.00;65.50;;;;;;5044337;28;45467;-80
2021/12/01 09:00:43;;;;;;;0.17;0.13;;;18.00;65.30;;;;;;5042094;28;45343;-80
2021/12/01 09:03:15;;;;;;;0.20;0.20;;;18.00;65.00;;;;;;5044398;28;45232;-80
2021/12/01 09:05:44;;;;;;;0.08;0.08;;;18.00;65.00;;;;;;5042854;28;45498;-80
2021/12/01 09:08:14;;;;;;;0.38;0.10;;;18.00;65.00;;;;;;5049484;28;47268;-80
2021/12/01 09:10:43;;;;;;;0.10;0.10;;;18.00;65.10;;;;;;5050183;28;45901;-80
2021/12/01 09:13:13;;;;;;;0.20;0.10;;;18.00;65.10;;;;;;5042659;28;45318;-80
2021/12/01 09:15:45;;;;;;;0.10;0.10;;;18.00;65.40;;;;;;5042830;28;45530;-80
2021/12/01 09:18:14;;;;;;;0.20;0.10;;;18.00;65.60;;;;;;5049503;28;46035;-80
2021/12/01 09:20:44;;;;;;;0.30;0.00;;;18.00;65.80;;;;;;5029006;28;45220;-80
2021/12/01 09:23:24;;;;;;;0.32;0.28;;;18.20;65.90;;;;;;5042926;28;45415;-80
2021/12/01 09:25:53;;;;;;;0.00;0.00;;;18.00;65.90;;;;;;5050394;28;45422;-80
2021/12/01 09:28:24;;;;;;;0.08;0.08;;;18.00;65.70;;;;;;5041269;28;48446;-80
2021/12/01 09:30:55;;;;;;;0.20;0.00;;;18.00;65.80;;;;;;5043212;28;45230;-80
2021/12/01 09:33:23;;;;;;;0.10;0.10;;;18.00;65.90;;;;;;5050233;28;45335;-80
2021/12/01 09:35:52;;;;;;;0.05;0.05;;;17.90;65.70;;;;;;5042462;28;45209;-80
2021/12/01 09:38:21;;;;;;;0.00;0.00;;;18.00;65.80;;;;;;5045263;28;48383;-80
2021/12/01 09:40:51;;;;;;;0.00;0.00;;;18.00;66.00;;;;;;5050432;28;45360;-80
2021/12/01 09:43:25;;;;;;;0.40;0.10;;;18.00;65.90;;;;;;5049298;28;45315;-80
2021/12/01 09:45:53;;;;;;;0.28;0.20;;;18.00;65.80;;;;;;5049917;28;45472;-80
2021/12/01 09:48:21;;;;;;;0.08;0.03;;;18.00;65.80;;;;;;5031781;28;45498;-80
2021/12/01 09:50:49;;;;;;;0.22;0.15;;;18.00;65.70;;;;;;5026975;28;45231;-80
2021/12/01 09:53:16;;;;;;;0.00;0.00;;;18.00;65.60;;;;;;5048487;28;45313;-80
2021/12/01 09:55:46;;;;;;;0.22;0.00;;;18.00;65.60;;;;;;5049171;28;45300;-80
2021/12/01 09:58:18;;;;;;;0.00;0.00;;;18.20;65.70;;;;;;5049843;28;48679;-80
2021/12/01 10:00:50;;;;;;;0.20;0.10;;;18.00;65.60;;;;;;5048610;28;45465;-80
2021/12/01 10:03:23;;;;;;;0.73;0.10;;;18.00;65.40;;;;;;5046805;28;46862;-80
2021/12/01 10:05:59;;;;;;;0.00;0.00;;;18.00;65.50;;;;;;5034852;28;45212;-80
2021/12/01 10:08:43;;;;;;;0.10;0.00;;;18.00;65.40;;;;;;5045609;28;45753;-80
2021/12/01 10:11:14;;;;;;;0.00;0.00;;;18.00;65.40;;;;;;5033886;28;45199;-80
2021/12/01 10:13:43;;;;;;;0.00;0.00;;;18.00;65.40;;;;;;5047317;28;45329;-80
2021/12/01 10:16:14;;;;;;;0.00;0.00;;;18.00;65.20;;;;;;5032626;28;45145;-80
2021/12/01 10:18:49;;;;;;;0.95;0.10;;;18.00;65.30;;;;;;5046796;28;47165;-80
2021/12/01 10:21:20;;;;;;;0.00;0.00;;;18.00;65.40;;;;;;5031253;28;45857;-80
2021/12/01 10:23:49;;;;;;;0.00;0.00;;;18.00;65.40;;;;;;5049084;28;45285;-81
2021/12/01 10:26:23;;;;;;;0.10;0.08;;;18.00;65.40;;;;;;5050034;28;45364;-81
2021/12/01 10:28:55;;;;;;;0.00;0.00;;;18.00;65.40;;;;;;5043143;28;45709;-81
2021/12/01 10:31:37;;;;;;;0.15;0.10;;;18.00;65.30;;;;;;5047896;28;45220;-81
2021/12/01 10:34:35;;;;;;;0.22;0.00;;;18.00;65.30;;;;;;5049496;28;45244;-81
2021/12/01 10:37:31;;;;;;;0.05;0.05;;;18.00;65.30;;;;;;5004453;28;45252;-79
2021/12/01 10:40:09;;;;;;;0.00;0.00;;;18.00;65.30;;;;;;5045952;28;47070;-79
2021/12/01 10:45:36;;;;;;;0.03;0.03;;;18.00;65.20;;;;;;5035391;28;45201;-79
2021/12/01 10:48:10;;;;;;;0.10;0.10;;;18.00;65.30;;;;;;5031555;28;45312;-80
2021/12/01 10:50:43;;;;;;;0.10;0.10;;;18.00;65.20;;;;;;5049151;28;46708;-80
2021/12/01 10:53:13;;;;;;;0.10;0.10;;;18.00;65.40;;;;;;5048523;28;46467;-80
2021/12/01 10:55:45;;;;;;;0.00;0.00;;;18.00;65.50;;;;;;5048466;28;45283;-80
2021/12/01 10:58:13;;;;;;;0.03;0.03;;;18.00;65.50;;;;;;5049850;28;45491;-80
2021/12/01 11:00:44;;;;;;;0.00;0.00;;;18.00;65.60;;;;;;5048341;28;48091;-80
2021/12/01 11:03:15;;;;;;;0.10;0.05;;;18.00;65.50;;;;;;5048185;28;45359;-80
2021/12/01 11:05:45;;;;;;;0.00;0.00;;;18.00;65.60;;;;;;5049959;28;45250;-80
2021/12/01 11:08:16;;;;;;;0.15;0.00;;;18.00;65.60;;;;;;5048495;28;45163;-80
2021/12/01 11:10:46;;;;;;;0.52;0.10;;;18.00;65.60;;;;;;5048521;28;46275;-80
2021/12/01 11:13:14;;;;;;;0.10;0.00;;;18.00;65.70;;;;;;5048996;28;45316;-80
2021/12/01 11:15:43;;;;;;;0.00;0.00;;;18.00;65.70;;;;;;5049257;28;45173;-80
2021/12/01 11:18:19;;;;;;;0.00;0.00;;;18.00;65.80;;;;;;5048028;28;45359;-80
2021/12/01 11:20:47;;;;;;;0.00;0.00;;;18.00;65.90;;;;;;5047050;28;47002;-80
2021/12/01 11:23:22;;;;;;;0.10;0.10;;;18.00;65.80;;;;;;5018500;28;45308;-80
2021/12/01 11:25:53;;;;;;;0.10;0.10;;;18.00;65.80;;;;;;5023682;28;45190;-80
2021/12/01 11:28:26;;;;;;;0.20;0.10;;;18.00;65.90;;;;;;5047790;28;45331;-80
2021/12/01 11:30:57;;;;;;;0.10;0.10;;;18.00;65.80;;;;;;5040138;28;47955;-80
2021/12/01 11:33:28;;;;;;;0.00;0.00;;;18.00;65.80;;;;;;5037958;28;45857;-80
2021/12/01 11:35:59;;;;;;;0.03;0.03;;;18.00;65.90;;;;;;5038497;28;45265;-80
2021/12/01 11:38:31;;;;;;;0.03;0.03;;;18.00;65.80;;;;;;5049100;28;45291;-80
2021/12/01 11:40:59;;;;;;;0.15;0.10;;;18.00;65.80;;;;;;5031786;28;46782;-80
2021/12/01 11:43:30;;;;;;;0.10;0.10;;;18.00;66.00;;;;;;5029503;28;45214;-80
2021/12/01 11:46:01;;;;;;;0.10;0.08;;;18.00;66.10;;;;;;5033852;28;45278;-80
2021/12/01 11:48:37;;;;;;;0.10;0.10;;;18.00;66.10;;;;;;5048140;28;45175;-79
2021/12/01 11:51:12;;;;;;;0.10;0.10;;;18.00;66.20;;;;;;5048851;28;45264;-79
2021/12/01 11:53:46;;;;;;;0.08;0.00;;;18.00;66.30;;;;;;5040852;28;45167;-79
2021/12/01 11:56:17;;;;;;;0.10;0.10;;;18.00;66.20;;;;;;5048866;28;45352;-80
2021/12/01 11:59:00;;;;;;;0.15;0.10;;;18.00;66.20;;;;;;5040140;28;45448;-79
2021/12/01 12:02:03;;;;;;;0.68;0.20;;;18.00;66.40;;;;;;5048161;28;47388;-79
2021/12/01 12:04:53;;;;;;;0.88;0.20;;;18.00;66.40;;;;;;5023175;28;45347;-79
2021/12/01 12:07:23;;;;;;;0.63;0.20;;;18.00;66.30;;;;;;5039029;28;45755;-79
2021/12/01 12:10:14;;;;;;;0.32;0.20;;;18.00;66.20;;;;;;5047727;28;45520;-79
2021/12/01 12:13:07;;;;;;;0.13;0.10;;;18.00;66.20;;;;;;5042742;28;45476;-79
2021/12/01 12:15:50;;;;;;;0.57;0.15;;;18.00;66.20;;;;;;5049112;28;45558;-79
2021/12/01 12:18:53;;;;;;;0.13;0.13;;;18.00;66.10;;;;;;5047840;28;45538;-79
2021/12/01 12:21:34;;;;;;;0.20;0.10;;;18.00;66.10;;;;;;5050397;28;45360;-79
2021/12/01 12:24:07;;;;;;;0.50;0.20;;;18.00;65.90;;;;;;5045052;28;46416;-79
2021/12/01 12:26:37;;;;;;;0.43;0.10;;;18.00;65.70;;;;;;5052242;28;45177;-79
2021/12/01 12:29:07;;;;;;;0.22;0.17;;;18.00;66.70;;;;;;5051759;28;45198;-79
2021/12/01 12:31:35;;;;;;;0.20;0.20;;;18.00;65.50;;;;;;5051906;28;45090;-79
2021/12/01 12:34:08;;;;;;;0.10;0.10;;;18.00;65.60;;;;;;5042937;28;45320;-80
2021/12/01 12:36:40;;;;;;;0.60;0.20;;;17.90;65.30;;;;;;5033274;28;45369;-79
2021/12/01 12:39:11;;;;;;;0.98;0.30;;;18.00;65.20;;;;;;5043763;28;45495;-79
2021/12/01 12:42:09;;;;;;;0.20;0.20;;;17.90;65.30;;;;;;5052686;28;45245;-79
2021/12/01 12:44:38;;;;;;;0.80;0.30;;;17.90;64.90;;;;;;5050086;28;47427;-79
2021/12/01 12:47:10;;;;;;;0.70;0.15;;;17.90;65.20;;;;;;5051285;28;46215;-79
2021/12/01 12:49:39;;;;;;;0.35;0.20;;;17.90;65.20;;;;;;5051893;28;45354;-80
2021/12/01 12:52:41;;;;;;;0.40;0.30;;;17.90;65.00;;;;;;5033178;28;45459;-79
2021/12/01 12:55:11;;;;;;;0.80;0.30;;;18.00;65.00;;;;;;5018577;28;47065;-79
2021/12/01 12:57:54;;;;;;;0.80;0.40;;;18.00;64.70;;;;;;5051111;28;45991;-79
2021/12/01 13:00:28;;;;;;;1.20;0.30;;;18.00;64.60;;;;;;5051429;28;45169;-79
2021/12/01 13:02:58;;;;;;;0.43;0.30;;;18.00;64.40;;;;;;5051612;28;45320;-79
2021/12/01 13:05:35;;;;;;;0.50;0.30;;;18.00;64.40;;;;;;5051685;28;47419;-79
2021/12/01 13:08:38;;;;;;;0.43;0.25;;;18.00;64.40;;;;;;5048350;28;45186;-79
2021/12/01 13:11:07;;;;;;;0.50;0.30;;;18.00;64.40;;;;;;5051512;28;45231;-79
2021/12/01 13:13:37;;;;;;;1.25;0.47;;;18.00;64.50;;;;;;5050287;28;46141;-79
2021/12/01 13:16:06;;;;;;;0.52;0.30;;;18.00;64.60;;;;;;5051599;28;48444;-79
2021/12/01 13:18:37;;;;;;;0.30;0.30;;;18.00;64.50;;;;;;5050869;28;46342;-78